Accueil
METAR-TAF:

METAR-TAF

Aéroports :

Aéroport de Nantes Atlantique

Nantes, France

latitude: 47-10N, longitude: 001-36W, altitude: 27 m

Observation

Le bulletin a été fait il y a 15 minutes, à 06:00 UTC
Vent 5 kt de nord/nord-est, variant entre nord et est/nord-est
Température 18°C
Humidité 88%
Pression 1017 hPa
Visibilité 10 km ou plus
pas de nuages en-dessous de 1500 mètres et pas de cumulonimbus.

METAR: LFRS 220600Z AUTO 02005KT 350V070 CAVOK 18/16 Q1017 NOSIG

Heure: 08:15 (06:15 UTC)

Prévision

Le bulletin a été fait il y a 1 heure et 15 minutes, à 05:00 UTC
Prévision valable du 22 à 06 UTC au 23 à 12 UTC
Vent 5 kt de nord
Visibilité 10 km ou plus
pas de nuages en-dessous de 1500 mètres et pas de cumulonimbus.
Temporairement
du 22 à 15 UTC au 22 à 21 UTC
Vent 10 kt de nord-ouest

TAF: LFRS 220500Z 2206/2312 01005KT CAVOK TEMPO 2215/2221 31010KT

Observations et prévisions météorologiques de plus de 4000 aéroports (messages METAR et TAF).

Les stations disponibles sont représentées par des disques jaunes et rouges sur la carte.

Passer la souris dessus pour voir le nom de la station.

Cliquer dessus pour voir les observations et prévisions météorologiques.

Pour changer de carte: cliquez sur les boutons verts avec une croix noire pour zoomer, sur le bouton vert avec un tiret pour effectuer un zoom arrière, ou sur les flèches vertes pour les cartes adjacentes.


METAR-TAF: